sensor_id;sensor_type;location;lat;lon;timestamp;pressure;altitude;pressure_sealevel;temperature;humidity
36380;BME280;22411;53.016;18.632;2023-07-31T00:01:47;100035.84;;;18.21;100.00
36380;BME280;22411;53.016;18.632;2023-07-31T00:04:12;100027.00;;;18.22;100.00
36380;BME280;22411;53.016;18.632;2023-07-31T00:06:38;100030.78;;;18.20;100.00
36380;BME280;22411;53.016;18.632;2023-07-31T00:09:04;100028.81;;;18.14;100.00
36380;BME280;22411;53.016;18.632;2023-07-31T00:11:29;100028.66;;;18.15;100.00
36380;BME280;22411;53.016;18.632;2023-07-31T00:13:55;100029.47;;;18.08;100.00
36380;BME280;22411;53.016;18.632;2023-07-31T00:16:21;100041.25;;;17.87;100.00
36380;BME280;22411;53.016;18.632;2023-07-31T00:18:47;100052.75;;;17.78;100.00
36380;BME280;22411;53.016;18.632;2023-07-31T00:21:13;100052.34;;;17.57;100.00
36380;BME280;22411;53.016;18.632;2023-07-31T00:23:38;100051.16;;;17.43;100.00
36380;BME280;22411;53.016;18.632;2023-07-31T00:26:04;100055.28;;;17.45;100.00
36380;BME280;22411;53.016;18.632;2023-07-31T00:28:29;100049.34;;;17.35;100.00
36380;BME280;22411;53.016;18.632;2023-07-31T00:30:55;100051.75;;;17.29;100.00
36380;BME280;22411;53.016;18.632;2023-07-31T00:33:21;100051.06;;;17.18;100.00
36380;BME280;22411;53.016;18.632;2023-07-31T00:35:48;100050.38;;;17.08;100.00
36380;BME280;22411;53.016;18.632;2023-07-31T00:38:13;100044.03;;;17.11;100.00
36380;BME280;22411;53.016;18.632;2023-07-31T00:40:39;100052.22;;;17.16;100.00
36380;BME280;22411;53.016;18.632;2023-07-31T00:43:05;100054.44;;;17.03;100.00
36380;BME280;22411;53.016;18.632;2023-07-31T00:45:32;100057.75;;;17.05;100.00
36380;BME280;22411;53.016;18.632;2023-07-31T00:47:58;100048.56;;;17.01;100.00
36380;BME280;22411;53.016;18.632;2023-07-31T00:50:24;100058.88;;;17.02;100.00
36380;BME280;22411;53.016;18.632;2023-07-31T00:52:50;100061.31;;;16.95;100.00
36380;BME280;22411;53.016;18.632;2023-07-31T00:55:16;100052.63;;;16.95;100.00
36380;BME280;22411;53.016;18.632;2023-07-31T00:57:42;100055.41;;;16.93;100.00
36380;BME280;22411;53.016;18.632;2023-07-31T01:00:08;100047.88;;;16.90;100.00
36380;BME280;22411;53.016;18.632;2023-07-31T01:02:35;100040.66;;;16.92;100.00
36380;BME280;22411;53.016;18.632;2023-07-31T01:05:01;100043.09;;;16.86;100.00
36380;BME280;22411;53.016;18.632;2023-07-31T01:07:49;100045.72;;;16.86;100.00
36380;BME280;22411;53.016;18.632;2023-07-31T01:10:23;100039.34;;;16.88;100.00
36380;BME280;22411;53.016;18.632;2023-07-31T01:12:51;100044.13;;;16.93;100.00
36380;BME280;22411;53.016;18.632;2023-07-31T01:15:18;100042.00;;;16.96;100.00
36380;BME280;22411;53.016;18.632;2023-07-31T01:17:44;100036.94;;;16.95;100.00
36380;BME280;22411;53.016;18.632;2023-07-31T01:20:21;100053.63;;;16.94;100.00
36380;BME280;22411;53.016;18.632;2023-07-31T01:23:07;100046.75;;;16.93;100.00
36380;BME280;22411;53.016;18.632;2023-07-31T01:25:50;100050.94;;;16.86;100.00
36380;BME280;22411;53.016;18.632;2023-07-31T01:28:21;100062.41;;;16.85;100.00
36380;BME280;22411;53.016;18.632;2023-07-31T01:30:49;100059.41;;;16.71;100.00
36380;BME280;22411;53.016;18.632;2023-07-31T01:33:16;100055.78;;;16.72;100.00
36380;BME280;22411;53.016;18.632;2023-07-31T01:35:44;100062.13;;;16.70;100.00
36380;BME280;22411;53.016;18.632;2023-07-31T01:38:11;100063.72;;;16.63;100.00
36380;BME280;22411;53.016;18.632;2023-07-31T01:40:40;100057.59;;;16.54;100.00
36380;BME280;22411;53.016;18.632;2023-07-31T01:43:06;100053.72;;;16.58;100.00
36380;BME280;22411;53.016;18.632;2023-07-31T01:45:32;100054.16;;;16.54;100.00
36380;BME280;22411;53.016;18.632;2023-07-31T01:47:57;100053.28;;;16.45;100.00
36380;BME280;22411;53.016;18.632;2023-07-31T01:50:23;100049.03;;;16.44;100.00
36380;BME280;22411;53.016;18.632;2023-07-31T01:52:49;100040.00;;;16.38;100.00
36380;BME280;22411;53.016;18.632;2023-07-31T01:55:14;100040.00;;;16.38;100.00
36380;BME280;22411;53.016;18.632;2023-07-31T01:57:40;100036.22;;;16.33;100.00
36380;BME280;22411;53.016;18.632;2023-07-31T02:00:06;100037.03;;;16.33;100.00
36380;BME280;22411;53.016;18.632;2023-07-31T02:02:33;100045.56;;;16.35;100.00
36380;BME280;22411;53.016;18.632;2023-07-31T02:04:58;100046.84;;;16.31;100.00
36380;BME280;22411;53.016;18.632;2023-07-31T02:07:24;100049.25;;;16.25;100.00
36380;BME280;22411;53.016;18.632;2023-07-31T02:09:49;100038.47;;;16.28;100.00
36380;BME280;22411;53.016;18.632;2023-07-31T02:12:15;100037.00;;;16.25;100.00
36380;BME280;22411;53.016;18.632;2023-07-31T02:14:41;100038.91;;;16.23;100.00
36380;BME280;22411;53.016;18.632;2023-07-31T02:17:06;100045.28;;;16.20;100.00
36380;BME280;22411;53.016;18.632;2023-07-31T02:19:32;100038.25;;;16.21;100.00
36380;BME280;22411;53.016;18.632;2023-07-31T02:21:57;100033.03;;;16.21;100.00
36380;BME280;22411;53.016;18.632;2023-07-31T02:24:24;100033.84;;;16.21;100.00
36380;BME280;22411;53.016;18.632;2023-07-31T02:26:49;100034.31;;;16.17;100.00
36380;BME280;22411;53.016;18.632;2023-07-31T02:29:15;100028.25;;;16.16;100.00
36380;BME280;22411;53.016;18.632;2023-07-31T02:31:41;100034.47;;;16.15;100.00
36380;BME280;22411;53.016;18.632;2023-07-31T02:34:07;100033.13;;;16.11;100.00
36380;BME280;22411;53.016;18.632;2023-07-31T02:36:32;100034.63;;;16.14;100.00
36380;BME280;22411;53.016;18.632;2023-07-31T02:38:58;100045.09;;;16.14;100.00
36380;BME280;22411;53.016;18.632;2023-07-31T02:41:24;100052.94;;;16.14;100.00
36380;BME280;22411;53.016;18.632;2023-07-31T02:43:49;100045.91;;;16.14;100.00
36380;BME280;22411;53.016;18.632;2023-07-31T02:46:15;100052.41;;;16.10;100.00
36380;BME280;22411;53.016;18.632;2023-07-31T02:48:40;100051.38;;;16.03;100.00
36380;BME280;22411;53.016;18.632;2023-07-31T02:51:06;100056.97;;;16.08;100.00
36380;BME280;22411;53.016;18.632;2023-07-31T02:53:32;100053.00;;;16.04;100.00
36380;BME280;22411;53.016;18.632;2023-07-31T02:55:57;100048.75;;;16.03;100.00
36380;BME280;22411;53.016;18.632;2023-07-31T02:58:23;100057.41;;;16.04;100.00
36380;BME280;22411;53.016;18.632;2023-07-31T03:00:48;100047.84;;;15.94;100.00
36380;BME280;22411;53.016;18.632;2023-07-31T03:03:14;100053.91;;;15.95;100.00
36380;BME280;22411;53.016;18.632;2023-07-31T03:05:40;100050.47;;;15.94;100.00
36380;BME280;22411;53.016;18.632;2023-07-31T03:08:06;100054.19;;;15.92;100.00
36380;BME280;22411;53.016;18.632;2023-07-31T03:10:31;100056.44;;;15.87;100.00
36380;BME280;22411;53.016;18.632;2023-07-31T03:12:57;100054.41;;;15.81;100.00
36380;BME280;22411;53.016;18.632;2023-07-31T03:15:22;100054.94;;;15.84;100.00
36380;BME280;22411;53.016;18.632;2023-07-31T03:17:48;100065.78;;;15.89;100.00
36380;BME280;22411;53.016;18.632;2023-07-31T03:20:14;100069.81;;;15.84;100.00
36380;BME280;22411;53.016;18.632;2023-07-31T03:22:40;100065.69;;;15.81;100.00
36380;BME280;22411;53.016;18.632;2023-07-31T03:25:05;100067.63;;;15.79;100.00
36380;BME280;22411;53.016;18.632;2023-07-31T03:27:31;100067.09;;;15.76;100.00
36380;BME280;22411;53.016;18.632;2023-07-31T03:29:57;100065.63;;;15.73;100.00
36380;BME280;22411;53.016;18.632;2023-07-31T03:32:23;100073.03;;;15.78;100.00
36380;BME280;22411;53.016;18.632;2023-07-31T03:34:49;100068.78;;;15.77;100.00
36380;BME280;22411;53.016;18.632;2023-07-31T03:37:15;100081.38;;;15.81;100.00
36380;BME280;22411;53.016;18.632;2023-07-31T03:39:40;100079.72;;;15.80;100.00
36380;BME280;22411;53.016;18.632;2023-07-31T03:42:06;100089.59;;;15.86;100.00
36380;BME280;22411;53.016;18.632;2023-07-31T03:44:31;100078.25;;;15.78;100.00
36380;BME280;22411;53.016;18.632;2023-07-31T03:46:57;100090.19;;;15.80;100.00
36380;BME280;22411;53.016;18.632;2023-07-31T03:49:23;100095.78;;;15.85;100.00
36380;BME280;22411;53.016;18.632;2023-07-31T03:51:49;100089.91;;;15.83;100.00
36380;BME280;22411;53.016;18.632;2023-07-31T03:54:15;100089.13;;;15.91;100.00
36380;BME280;22411;53.016;18.632;2023-07-31T03:56:40;100091.09;;;15.89;100.00
36380;BME280;22411;53.016;18.632;2023-07-31T03:59:06;100087.88;;;15.95;100.00
36380;BME280;22411;53.016;18.632;2023-07-31T04:01:32;100077.66;;;15.84;100.00
36380;BME280;22411;53.016;18.632;2023-07-31T04:03:57;100081.63;;;15.88;100.00
36380;BME280;22411;53.016;18.632;2023-07-31T04:06:23;100089.44;;;15.88;100.00
36380;BME280;22411;53.016;18.632;2023-07-31T04:08:49;100083.03;;;15.82;100.00
36380;BME280;22411;53.016;18.632;2023-07-31T04:11:14;100091.31;;;15.78;100.00
36380;BME280;22411;53.016;18.632;2023-07-31T04:13:40;100090.56;;;15.85;100.00
36380;BME280;22411;53.016;18.632;2023-07-31T04:16:06;100097.94;;;15.90;100.00
36380;BME280;22411;53.016;18.632;2023-07-31T04:18:31;100088.31;;;15.90;100.00
36380;BME280;22411;53.016;18.632;2023-07-31T04:20:58;100089.44;;;15.88;100.00
36380;BME280;22411;53.016;18.632;2023-07-31T04:23:26;100090.13;;;15.90;100.00
36380;BME280;22411;53.016;18.632;2023-07-31T04:25:52;100092.88;;;15.88;100.00
36380;BME280;22411;53.016;18.632;2023-07-31T04:28:18;100091.75;;;15.91;100.00
36380;BME280;22411;53.016;18.632;2023-07-31T04:30:43;100098.78;;;15.90;100.00
36380;BME280;22411;53.016;18.632;2023-07-31T04:33:09;100103.19;;;15.90;100.00
36380;BME280;22411;53.016;18.632;2023-07-31T04:35:35;100096.97;;;15.91;100.00
36380;BME280;22411;53.016;18.632;2023-07-31T04:38:00;100095.25;;;15.82;100.00
36380;BME280;22411;53.016;18.632;2023-07-31T04:40:27;100094.53;;;15.89;100.00
36380;BME280;22411;53.016;18.632;2023-07-31T04:42:52;100098.19;;;15.79;100.00
36380;BME280;22411;53.016;18.632;2023-07-31T04:45:18;100100.25;;;15.75;100.00
36380;BME280;22411;53.016;18.632;2023-07-31T04:47:44;100097.28;;;15.88;100.00
36380;BME280;22411;53.016;18.632;2023-07-31T04:50:10;100096.97;;;15.91;100.00
36380;BME280;22411;53.016;18.632;2023-07-31T04:52:35;100096.97;;;15.91;100.00
36380;BME280;22411;53.016;18.632;2023-07-31T04:55:01;100097.94;;;15.90;100.00
36380;BME280;22411;53.016;18.632;2023-07-31T04:57:27;100089.97;;;15.91;100.00
36380;BME280;22411;53.016;18.632;2023-07-31T04:59:52;100098.94;;;15.89;100.00
36380;BME280;22411;53.016;18.632;2023-07-31T05:02:18;100089.50;;;15.96;100.00
36380;BME280;22411;53.016;18.632;2023-07-31T05:04:44;100092.34;;;16.03;100.00
36380;BME280;22411;53.016;18.632;2023-07-31T05:07:10;100086.97;;;16.04;100.00
36380;BME280;22411;53.016;18.632;2023-07-31T05:09:35;100085.56;;;16.10;100.00
36380;BME280;22411;53.016;18.632;2023-07-31T05:12:01;100086.38;;;16.10;100.00
36380;BME280;22411;53.016;18.632;2023-07-31T05:14:27;100098.03;;;16.16;100.00
36380;BME280;22411;53.016;18.632;2023-07-31T05:16:52;100095.00;;;16.29;100.00
36380;BME280;22411;53.016;18.632;2023-07-31T05:19:18;100091.09;;;16.25;100.00
36380;BME280;22411;53.016;18.632;2023-07-31T05:21:43;100106.81;;;16.33;100.00
36380;BME280;22411;53.016;18.632;2023-07-31T05:24:10;100103.38;;;16.32;100.00
36380;BME280;22411;53.016;18.632;2023-07-31T05:26:35;100113.56;;;16.35;100.00
36380;BME280;22411;53.016;18.632;2023-07-31T05:29:01;100103.91;;;16.36;100.00
36380;BME280;22411;53.016;18.632;2023-07-31T05:31:27;100112.13;;;16.23;100.00
36380;BME280;22411;53.016;18.632;2023-07-31T05:33:53;100103.19;;;16.26;100.00
36380;BME280;22411;53.016;18.632;2023-07-31T05:36:19;100105.75;;;16.43;100.00
36380;BME280;22411;53.016;18.632;2023-07-31T05:38:45;100107.88;;;16.40;100.00
36380;BME280;22411;53.016;18.632;2023-07-31T05:41:13;100112.63;;;16.44;100.00
36380;BME280;22411;53.016;18.632;2023-07-31T05:43:39;100112.50;;;16.46;100.00
36380;BME280;22411;53.016;18.632;2023-07-31T05:46:04;100124.28;;;16.50;100.00
36380;BME280;22411;53.016;18.632;2023-07-31T05:48:32;100125.25;;;16.49;100.00
36380;BME280;22411;53.016;18.632;2023-07-31T05:50:59;100127.94;;;16.39;100.00
36380;BME280;22411;53.016;18.632;2023-07-31T05:53:25;100134.72;;;16.50;100.00
36380;BME280;22411;53.016;18.632;2023-07-31T05:55:51;100127.03;;;16.48;100.00
36380;BME280;22411;53.016;18.632;2023-07-31T05:58:17;100125.97;;;16.59;100.00
36380;BME280;22411;53.016;18.632;2023-07-31T06:00:42;100123.28;;;16.69;100.00
36380;BME280;22411;53.016;18.632;2023-07-31T06:03:08;100125.06;;;16.68;100.00
36380;BME280;22411;53.016;18.632;2023-07-31T06:05:34;100127.75;;;16.77;100.00
36380;BME280;22411;53.016;18.632;2023-07-31T06:08:00;100133.34;;;16.82;100.00
36380;BME280;22411;53.016;18.632;2023-07-31T06:10:26;100143.81;;;16.82;100.00
36380;BME280;22411;53.016;18.632;2023-07-31T06:12:52;100139.94;;;16.86;100.00
36380;BME280;22411;53.016;18.632;2023-07-31T06:15:18;100135.47;;;16.78;100.00
36380;BME280;22411;53.016;18.632;2023-07-31T06:17:45;100122.88;;;16.82;100.00
36380;BME280;22411;53.016;18.632;2023-07-31T06:20:10;100122.94;;;16.90;100.00
36380;BME280;22411;53.016;18.632;2023-07-31T06:22:36;100135.81;;;17.09;100.00
36380;BME280;22411;53.016;18.632;2023-07-31T06:25:02;100135.75;;;16.93;100.00
36380;BME280;22411;53.016;18.632;2023-07-31T06:27:28;100126.91;;;16.94;100.00
36380;BME280;22411;53.016;18.632;2023-07-31T06:29:53;100133.72;;;16.87;100.00
36380;BME280;22411;53.016;18.632;2023-07-31T06:32:19;100135.75;;;17.01;100.00
36380;BME280;22411;53.016;18.632;2023-07-31T06:34:45;100136.19;;;17.14;100.00
36380;BME280;22411;53.016;18.632;2023-07-31T06:37:10;100140.00;;;17.28;100.00
36380;BME280;22411;53.016;18.632;2023-07-31T06:39:36;100142.50;;;17.38;100.00
36380;BME280;22411;53.016;18.632;2023-07-31T06:42:03;100141.78;;;17.28;100.00
36380;BME280;22411;53.016;18.632;2023-07-31T06:44:29;100136.78;;;17.42;100.00
36380;BME280;22411;53.016;18.632;2023-07-31T06:46:55;100139.63;;;17.57;100.00
36380;BME280;22411;53.016;18.632;2023-07-31T06:49:20;100151.63;;;17.68;100.00
36380;BME280;22411;53.016;18.632;2023-07-31T06:51:46;100152.47;;;17.76;100.00
36380;BME280;22411;53.016;18.632;2023-07-31T06:54:12;100151.34;;;17.87;100.00
36380;BME280;22411;53.016;18.632;2023-07-31T06:56:38;100158.44;;;17.95;100.00
36380;BME280;22411;53.016;18.632;2023-07-31T06:59:03;100155.16;;;17.93;100.00
36380;BME280;22411;53.016;18.632;2023-07-31T07:01:29;100150.25;;;18.06;100.00
36380;BME280;22411;53.016;18.632;2023-07-31T07:03:55;100152.88;;;18.06;100.00
36380;BME280;22411;53.016;18.632;2023-07-31T07:06:21;100153.41;;;18.26;100.00
36380;BME280;22411;53.016;18.632;2023-07-31T07:08:48;100153.88;;;18.29;100.00
36380;BME280;22411;53.016;18.632;2023-07-31T07:11:14;100153.38;;;18.34;100.00
36380;BME280;22411;53.016;18.632;2023-07-31T07:13:40;100149.47;;;18.38;100.00
36380;BME280;22411;53.016;18.632;2023-07-31T07:16:06;100145.69;;;18.49;100.00
36380;BME280;22411;53.016;18.632;2023-07-31T07:18:32;100155.38;;;18.40;100.00
36380;BME280;22411;53.016;18.632;2023-07-31T07:20:57;100156.84;;;18.59;100.00
36380;BME280;22411;53.016;18.632;2023-07-31T07:23:23;100157.47;;;18.61;100.00
36380;BME280;22411;53.016;18.632;2023-07-31T07:25:49;100151.59;;;18.67;100.00
36380;BME280;22411;53.016;18.632;2023-07-31T07:28:15;100145.84;;;18.88;100.00
36380;BME280;22411;53.016;18.632;2023-07-31T07:30:41;100152.06;;;18.95;100.00
36380;BME280;22411;53.016;18.632;2023-07-31T07:33:06;100149.41;;;19.12;100.00
36380;BME280;22411;53.016;18.632;2023-07-31T07:35:36;100149.06;;;19.15;100.00
36380;BME280;22411;53.016;18.632;2023-07-31T07:38:02;100155.09;;;19.23;100.00
36380;BME280;22411;53.016;18.632;2023-07-31T07:40:28;100156.59;;;19.18;100.00
36380;BME280;22411;53.016;18.632;2023-07-31T07:42:54;100155.09;;;19.23;100.00
36380;BME280;22411;53.016;18.632;2023-07-31T07:45:20;100150.34;;;19.19;100.00
36380;BME280;22411;53.016;18.632;2023-07-31T07:47:45;100143.88;;;19.46;100.00
36380;BME280;22411;53.016;18.632;2023-07-31T07:50:11;100155.28;;;19.69;100.00
36380;BME280;22411;53.016;18.632;2023-07-31T07:52:37;100154.75;;;19.74;100.00
36380;BME280;22411;53.016;18.632;2023-07-31T07:55:03;100155.47;;;19.68;100.00
36380;BME280;22411;53.016;18.632;2023-07-31T07:57:29;100165.78;;;19.77;100.00
36380;BME280;22411;53.016;18.632;2023-07-31T07:59:55;100155.41;;;19.76;100.00
36380;BME280;22411;53.016;18.632;2023-07-31T08:02:22;100155.59;;;19.74;100.00
36380;BME280;22411;53.016;18.632;2023-07-31T08:04:48;100158.94;;;19.91;100.00
36380;BME280;22411;53.016;18.632;2023-07-31T08:07:14;100148.41;;;20.14;100.00
36380;BME280;22411;53.016;18.632;2023-07-31T08:09:40;100154.09;;;20.26;100.00
36380;BME280;22411;53.016;18.632;2023-07-31T08:12:06;100148.22;;;20.61;100.00
36380;BME280;22411;53.016;18.632;2023-07-31T08:14:32;100154.44;;;20.69;100.00
36380;BME280;22411;53.016;18.632;2023-07-31T08:16:58;100149.44;;;20.74;100.00
36380;BME280;22411;53.016;18.632;2023-07-31T08:19:24;100151.28;;;20.73;100.00
36380;BME280;22411;53.016;18.632;2023-07-31T08:21:49;100149.47;;;20.88;100.00
36380;BME280;22411;53.016;18.632;2023-07-31T08:24:15;100143.91;;;20.69;100.00
36380;BME280;22411;53.016;18.632;2023-07-31T08:26:41;100149.34;;;20.67;100.00
36380;BME280;22411;53.016;18.632;2023-07-31T08:29:07;100151.28;;;20.88;100.00
36380;BME280;22411;53.016;18.632;2023-07-31T08:31:32;100150.72;;;20.93;100.00
36380;BME280;22411;53.016;18.632;2023-07-31T08:33:59;100139.75;;;21.04;100.00
36380;BME280;22411;53.016;18.632;2023-07-31T08:36:25;100134.59;;;21.25;100.00
36380;BME280;22411;53.016;18.632;2023-07-31T08:38:50;100132.22;;;21.45;100.00
36380;BME280;22411;53.016;18.632;2023-07-31T08:41:16;100138.56;;;21.51;100.00
36380;BME280;22411;53.016;18.632;2023-07-31T08:43:49;100132.75;;;21.40;100.00
36380;BME280;22411;53.016;18.632;2023-07-31T08:46:15;100133.47;;;21.49;100.00
36380;BME280;22411;53.016;18.632;2023-07-31T08:48:44;100141.66;;;21.90;100.00
36380;BME280;22411;53.016;18.632;2023-07-31T08:51:10;100130.31;;;22.11;100.00
36380;BME280;22411;53.016;18.632;2023-07-31T08:53:36;100137.44;;;22.11;100.00
36380;BME280;22411;53.016;18.632;2023-07-31T08:56:02;100133.13;;;22.10;100.00
36380;BME280;22411;53.016;18.632;2023-07-31T08:58:31;100126.19;;;22.09;100.00
36380;BME280;22411;53.016;18.632;2023-07-31T09:00:58;100130.03;;;22.06;100.00
36380;BME280;22411;53.016;18.632;2023-07-31T09:03:26;100132.47;;;21.86;100.00
36380;BME280;22411;53.016;18.632;2023-07-31T09:05:53;100126.16;;;21.66;100.00
36380;BME280;22411;53.016;18.632;2023-07-31T09:08:21;100123.88;;;21.78;100.00
36380;BME280;22411;53.016;18.632;2023-07-31T09:10:48;100124.94;;;21.83;100.00
36380;BME280;22411;53.016;18.632;2023-07-31T09:13:15;100115.50;;;21.74;100.00
36380;BME280;22411;53.016;18.632;2023-07-31T09:15:43;100119.03;;;21.81;100.00
36380;BME280;22411;53.016;18.632;2023-07-31T09:18:09;100114.31;;;21.77;100.00
36380;BME280;22411;53.016;18.632;2023-07-31T09:20:35;100119.41;;;21.78;100.00
36380;BME280;22411;53.016;18.632;2023-07-31T09:23:12;100119.22;;;21.80;100.00
36380;BME280;22411;53.016;18.632;2023-07-31T09:25:39;100114.97;;;21.79;100.00
36380;BME280;22411;53.016;18.632;2023-07-31T09:28:07;100102.34;;;21.96;100.00
36380;BME280;22411;53.016;18.632;2023-07-31T09:30:50;100102.66;;;22.07;100.00
36380;BME280;22411;53.016;18.632;2023-07-31T09:33:17;100107.31;;;22.27;100.00
36380;BME280;22411;53.016;18.632;2023-07-31T09:35:43;100099.16;;;22.50;100.00
36380;BME280;22411;53.016;18.632;2023-07-31T09:38:11;100101.44;;;22.53;100.00
36380;BME280;22411;53.016;18.632;2023-07-31T09:40:40;100102.13;;;22.40;100.00
36380;BME280;22411;53.016;18.632;2023-07-31T09:43:08;100093.63;;;22.44;100.00
36380;BME280;22411;53.016;18.632;2023-07-31T09:45:42;100090.75;;;22.39;100.00
36380;BME280;22411;53.016;18.632;2023-07-31T09:48:13;100090.91;;;22.31;100.00
36380;BME280;22411;53.016;18.632;2023-07-31T09:50:44;100089.75;;;21.98;100.00
36380;BME280;22411;53.016;18.632;2023-07-31T09:53:10;100081.72;;;22.06;100.00
36380;BME280;22411;53.016;18.632;2023-07-31T09:55:36;100080.47;;;22.23;100.00
36380;BME280;22411;53.016;18.632;2023-07-31T09:58:05;100089.22;;;22.24;100.00
36380;BME280;22411;53.016;18.632;2023-07-31T10:00:31;100074.19;;;22.24;100.00
36380;BME280;22411;53.016;18.632;2023-07-31T10:03:02;100083.69;;;22.18;100.00
36380;BME280;22411;53.016;18.632;2023-07-31T10:05:35;100068.41;;;21.92;100.00
36380;BME280;22411;53.016;18.632;2023-07-31T10:08:01;100065.66;;;21.79;100.00
36380;BME280;22411;53.016;18.632;2023-07-31T10:10:27;100067.00;;;21.54;100.00
36380;BME280;22411;53.016;18.632;2023-07-31T10:12:54;100078.66;;;21.45;100.00
36380;BME280;22411;53.016;18.632;2023-07-31T10:15:21;100054.13;;;21.44;100.00
36380;BME280;22411;53.016;18.632;2023-07-31T10:17:48;100056.41;;;21.47;100.00
36380;BME280;22411;53.016;18.632;2023-07-31T10:20:15;100059.16;;;21.60;100.00
36380;BME280;22411;53.016;18.632;2023-07-31T10:22:43;100051.56;;;21.51;100.00
36380;BME280;22411;53.016;18.632;2023-07-31T10:25:09;100051.44;;;21.37;100.00
36380;BME280;22411;53.016;18.632;2023-07-31T10:27:36;100050.81;;;21.21;100.00
36380;BME280;22411;53.016;18.632;2023-07-31T10:30:04;100040.84;;;21.01;100.00
36380;BME280;22411;53.016;18.632;2023-07-31T10:32:31;100034.56;;;20.87;100.00
36380;BME280;22411;53.016;18.632;2023-07-31T10:34:57;100049.75;;;20.71;100.00
36380;BME280;22411;53.016;18.632;2023-07-31T10:37:25;100059.81;;;20.52;100.00
36380;BME280;22411;53.016;18.632;2023-07-31T10:40:00;100032.97;;;20.34;100.00
36380;BME280;22411;53.016;18.632;2023-07-31T10:45:06;100048.88;;;20.26;100.00
36380;BME280;22411;53.016;18.632;2023-07-31T10:47:42;100067.72;;;19.92;100.00
36380;BME280;22411;53.016;18.632;2023-07-31T10:50:22;100058.91;;;18.83;100.00
36380;BME280;22411;53.016;18.632;2023-07-31T10:52:51;100062.56;;;18.33;100.00
36380;BME280;22411;53.016;18.632;2023-07-31T10:55:39;100063.06;;;18.12;100.00
36380;BME280;22411;53.016;18.632;2023-07-31T10:58:06;100059.81;;;17.94;100.00
36380;BME280;22411;53.016;18.632;2023-07-31T11:00:32;100053.41;;;17.88;100.00
36380;BME280;22411;53.016;18.632;2023-07-31T11:03:46;100060.47;;;17.88;100.00
36380;BME280;22411;53.016;18.632;2023-07-31T11:06:14;100076.31;;;17.86;100.00
36380;BME280;22411;53.016;18.632;2023-07-31T11:08:45;100055.97;;;17.72;100.00
36380;BME280;22411;53.016;18.632;2023-07-31T11:11:13;100055.31;;;17.62;100.00
36380;BME280;22411;53.016;18.632;2023-07-31T11:16:07;100036.78;;;17.71;100.00
36380;BME280;22411;53.016;18.632;2023-07-31T11:18:33;100035.19;;;17.87;100.00
36380;BME280;22411;53.016;18.632;2023-07-31T11:20:58;100037.00;;;18.02;100.00
36380;BME280;22411;53.016;18.632;2023-07-31T11:23:24;100026.03;;;18.15;100.00
36380;BME280;22411;53.016;18.632;2023-07-31T11:25:50;100031.09;;;18.33;100.00
36380;BME280;22411;53.016;18.632;2023-07-31T11:28:17;100018.91;;;18.57;100.00
36380;BME280;22411;53.016;18.632;2023-07-31T11:30:44;100019.75;;;19.04;100.00
36380;BME280;22411;53.016;18.632;2023-07-31T11:33:13;100010.91;;;19.59;100.00
36380;BME280;22411;53.016;18.632;2023-07-31T11:35:48;100012.75;;;20.20;100.00
36380;BME280;22411;53.016;18.632;2023-07-31T11:38:22;100014.16;;;20.60;100.00
36380;BME280;22411;53.016;18.632;2023-07-31T11:40:51;100014.34;;;20.88;100.00
36380;BME280;22411;53.016;18.632;2023-07-31T11:43:17;100021.59;;;21.01;100.00
36380;BME280;22411;53.016;18.632;2023-07-31T11:45:54;100009.28;;;21.08;100.00
36380;BME280;22411;53.016;18.632;2023-07-31T11:48:28;100003.69;;;20.96;100.00
36380;BME280;22411;53.016;18.632;2023-07-31T11:50:58;99998.81;;;20.78;100.00
36380;BME280;22411;53.016;18.632;2023-07-31T11:53:28;99994.84;;;20.68;100.00
36380;BME280;22411;53.016;18.632;2023-07-31T11:55:58;99998.78;;;20.34;100.00
36380;BME280;22411;53.016;18.632;2023-07-31T11:58:25;99992.31;;;20.22;100.00
36380;BME280;22411;53.016;18.632;2023-07-31T12:00:52;99993.94;;;20.08;100.00
36380;BME280;22411;53.016;18.632;2023-07-31T12:03:18;99997.38;;;19.94;100.00
36380;BME280;22411;53.016;18.632;2023-07-31T12:05:44;100007.88;;;19.71;100.00
36380;BME280;22411;53.016;18.632;2023-07-31T12:08:11;99986.94;;;19.63;100.00
36380;BME280;22411;53.016;18.632;2023-07-31T12:10:37;99998.25;;;19.63;100.00
36380;BME280;22411;53.016;18.632;2023-07-31T12:13:11;99991.72;;;19.59;100.00
36380;BME280;22411;53.016;18.632;2023-07-31T12:15:44;99993.53;;;19.50;100.00
36380;BME280;22411;53.016;18.632;2023-07-31T12:18:13;99989.75;;;19.53;100.00
36380;BME280;22411;53.016;18.632;2023-07-31T12:20:47;99993.72;;;19.49;100.00
36380;BME280;22411;53.016;18.632;2023-07-31T12:23:21;100008.88;;;19.39;100.00
36380;BME280;22411;53.016;18.632;2023-07-31T12:26:06;100002.22;;;19.28;100.00
36380;BME280;22411;53.016;18.632;2023-07-31T12:31:19;99999.28;;;19.23;100.00
36380;BME280;22411;53.016;18.632;2023-07-31T12:33:48;99995.22;;;19.20;100.00
36380;BME280;22411;53.016;18.632;2023-07-31T12:36:16;99992.59;;;19.20;100.00
36380;BME280;22411;53.016;18.632;2023-07-31T12:38:43;99986.69;;;19.18;100.00